sensor_id;sensor_type;location;lat;lon;timestamp;P1;durP1;ratioP1;P2;durP2;ratioP2
39792;SDS011;26080;42.264;24.536;2024-03-22T00:00:38;3.88;;;1.60;;
39792;SDS011;26080;42.264;24.536;2024-03-22T00:03:04;5.90;;;2.50;;
39792;SDS011;26080;42.264;24.536;2024-03-22T00:05:29;6.50;;;2.78;;
39792;SDS011;26080;42.264;24.536;2024-03-22T00:07:55;4.00;;;2.15;;
39792;SDS011;26080;42.264;24.536;2024-03-22T00:10:20;3.00;;;1.95;;
39792;SDS011;26080;42.264;24.536;2024-03-22T00:12:46;2.58;;;1.27;;
39792;SDS011;26080;42.264;24.536;2024-03-22T00:15:11;5.22;;;3.05;;
39792;SDS011;26080;42.264;24.536;2024-03-22T00:17:37;5.05;;;3.70;;
39792;SDS011;26080;42.264;24.536;2024-03-22T00:20:02;3.88;;;2.22;;
39792;SDS011;26080;42.264;24.536;2024-03-22T00:22:28;5.18;;;2.35;;
39792;SDS011;26080;42.264;24.536;2024-03-22T00:24:53;3.38;;;1.95;;
39792;SDS011;26080;42.264;24.536;2024-03-22T00:27:19;5.00;;;2.10;;
39792;SDS011;26080;42.264;24.536;2024-03-22T00:29:44;2.47;;;2.28;;
39792;SDS011;26080;42.264;24.536;2024-03-22T00:32:10;3.33;;;1.95;;
39792;SDS011;26080;42.264;24.536;2024-03-22T00:34:35;5.63;;;2.75;;
39792;SDS011;26080;42.264;24.536;2024-03-22T00:37:00;3.60;;;1.88;;
39792;SDS011;26080;42.264;24.536;2024-03-22T00:39:26;3.63;;;2.22;;
39792;SDS011;26080;42.264;24.536;2024-03-22T00:41:51;3.33;;;2.10;;
39792;SDS011;26080;42.264;24.536;2024-03-22T00:44:17;4.22;;;2.17;;
39792;SDS011;26080;42.264;24.536;2024-03-22T00:46:42;3.92;;;2.60;;
39792;SDS011;26080;42.264;24.536;2024-03-22T00:49:07;7.80;;;2.58;;
39792;SDS011;26080;42.264;24.536;2024-03-22T00:51:33;5.50;;;2.53;;
39792;SDS011;26080;42.264;24.536;2024-03-22T00:53:58;4.38;;;2.83;;
39792;SDS011;26080;42.264;24.536;2024-03-22T00:56:24;2.53;;;1.80;;
39792;SDS011;26080;42.264;24.536;2024-03-22T00:58:49;4.35;;;2.45;;
39792;SDS011;26080;42.264;24.536;2024-03-22T01:01:14;5.18;;;2.17;;
39792;SDS011;26080;42.264;24.536;2024-03-22T01:03:40;5.53;;;1.90;;
39792;SDS011;26080;42.264;24.536;2024-03-22T01:06:05;6.25;;;2.83;;
39792;SDS011;26080;42.264;24.536;2024-03-22T01:08:32;4.57;;;2.65;;
39792;SDS011;26080;42.264;24.536;2024-03-22T01:10:57;8.20;;;2.20;;
39792;SDS011;26080;42.264;24.536;2024-03-22T01:13:23;2.88;;;1.58;;
39792;SDS011;26080;42.264;24.536;2024-03-22T01:15:48;3.40;;;1.58;;
39792;SDS011;26080;42.264;24.536;2024-03-22T01:18:14;4.53;;;2.40;;
39792;SDS011;26080;42.264;24.536;2024-03-22T01:20:39;3.13;;;1.85;;
39792;SDS011;26080;42.264;24.536;2024-03-22T01:23:04;4.72;;;3.13;;
39792;SDS011;26080;42.264;24.536;2024-03-22T01:25:30;6.28;;;3.20;;
39792;SDS011;26080;42.264;24.536;2024-03-22T01:27:55;4.93;;;2.83;;
39792;SDS011;26080;42.264;24.536;2024-03-22T01:30:21;7.63;;;2.20;;
39792;SDS011;26080;42.264;24.536;2024-03-22T01:32:46;3.92;;;2.20;;
39792;SDS011;26080;42.264;24.536;2024-03-22T01:35:12;4.68;;;2.05;;
39792;SDS011;26080;42.264;24.536;2024-03-22T01:37:37;5.53;;;3.17;;
39792;SDS011;26080;42.264;24.536;2024-03-22T01:40:03;2.97;;;2.28;;
39792;SDS011;26080;42.264;24.536;2024-03-22T01:42:31;6.57;;;3.40;;
39792;SDS011;26080;42.264;24.536;2024-03-22T01:44:57;5.65;;;3.72;;
39792;SDS011;26080;42.264;24.536;2024-03-22T01:47:22;6.90;;;2.55;;
39792;SDS011;26080;42.264;24.536;2024-03-22T01:49:49;6.60;;;3.03;;
39792;SDS011;26080;42.264;24.536;2024-03-22T01:52:16;8.27;;;3.28;;
39792;SDS011;26080;42.264;24.536;2024-03-22T01:54:41;5.47;;;2.45;;
39792;SDS011;26080;42.264;24.536;2024-03-22T01:57:07;8.82;;;3.05;;
39792;SDS011;26080;42.264;24.536;2024-03-22T01:59:33;5.85;;;2.72;;
39792;SDS011;26080;42.264;24.536;2024-03-22T02:01:59;4.40;;;2.30;;
39792;SDS011;26080;42.264;24.536;2024-03-22T02:04:24;6.00;;;3.45;;
39792;SDS011;26080;42.264;24.536;2024-03-22T02:06:50;5.43;;;3.45;;
39792;SDS011;26080;42.264;24.536;2024-03-22T02:09:15;9.95;;;5.03;;
39792;SDS011;26080;42.264;24.536;2024-03-22T02:11:41;6.90;;;3.80;;
39792;SDS011;26080;42.264;24.536;2024-03-22T02:14:07;5.15;;;2.58;;
39792;SDS011;26080;42.264;24.536;2024-03-22T02:16:33;5.18;;;2.90;;
39792;SDS011;26080;42.264;24.536;2024-03-22T02:18:58;7.30;;;3.78;;
39792;SDS011;26080;42.264;24.536;2024-03-22T02:21:24;7.90;;;2.88;;
39792;SDS011;26080;42.264;24.536;2024-03-22T02:23:49;6.00;;;2.72;;
39792;SDS011;26080;42.264;24.536;2024-03-22T02:26:14;4.22;;;2.42;;
39792;SDS011;26080;42.264;24.536;2024-03-22T02:28:40;4.00;;;2.60;;
39792;SDS011;26080;42.264;24.536;2024-03-22T02:31:05;4.32;;;2.38;;
39792;SDS011;26080;42.264;24.536;2024-03-22T02:33:31;4.47;;;2.53;;
39792;SDS011;26080;42.264;24.536;2024-03-22T02:35:56;6.60;;;3.45;;
39792;SDS011;26080;42.264;24.536;2024-03-22T02:38:22;4.68;;;3.25;;
39792;SDS011;26080;42.264;24.536;2024-03-22T02:40:48;3.20;;;1.85;;
39792;SDS011;26080;42.264;24.536;2024-03-22T02:43:14;5.93;;;3.17;;
39792;SDS011;26080;42.264;24.536;2024-03-22T02:45:40;5.15;;;2.60;;
39792;SDS011;26080;42.264;24.536;2024-03-22T02:48:06;4.00;;;2.53;;
39792;SDS011;26080;42.264;24.536;2024-03-22T02:50:35;3.63;;;2.33;;
39792;SDS011;26080;42.264;24.536;2024-03-22T02:53:02;4.82;;;2.60;;
39792;SDS011;26080;42.264;24.536;2024-03-22T02:55:28;4.25;;;2.08;;
39792;SDS011;26080;42.264;24.536;2024-03-22T02:57:55;5.00;;;2.50;;
39792;SDS011;26080;42.264;24.536;2024-03-22T03:00:21;4.55;;;2.35;;
39792;SDS011;26080;42.264;24.536;2024-03-22T03:02:47;3.28;;;2.35;;
39792;SDS011;26080;42.264;24.536;2024-03-22T03:05:13;5.60;;;2.33;;
39792;SDS011;26080;42.264;24.536;2024-03-22T03:07:38;4.07;;;2.70;;
39792;SDS011;26080;42.264;24.536;2024-03-22T03:10:04;2.80;;;1.80;;
39792;SDS011;26080;42.264;24.536;2024-03-22T03:12:29;4.18;;;1.75;;
39792;SDS011;26080;42.264;24.536;2024-03-22T03:14:55;4.05;;;1.90;;
39792;SDS011;26080;42.264;24.536;2024-03-22T03:17:20;6.05;;;2.72;;
39792;SDS011;26080;42.264;24.536;2024-03-22T03:19:46;4.22;;;2.65;;
39792;SDS011;26080;42.264;24.536;2024-03-22T03:22:11;6.05;;;3.45;;
39792;SDS011;26080;42.264;24.536;2024-03-22T03:24:37;5.47;;;2.55;;
39792;SDS011;26080;42.264;24.536;2024-03-22T03:27:02;5.80;;;2.72;;
39792;SDS011;26080;42.264;24.536;2024-03-22T03:29:28;6.18;;;2.72;;
39792;SDS011;26080;42.264;24.536;2024-03-22T03:31:53;5.68;;;1.73;;
39792;SDS011;26080;42.264;24.536;2024-03-22T03:34:19;2.67;;;1.45;;
39792;SDS011;26080;42.264;24.536;2024-03-22T03:36:45;3.58;;;2.42;;
39792;SDS011;26080;42.264;24.536;2024-03-22T03:39:11;4.63;;;1.83;;
39792;SDS011;26080;42.264;24.536;2024-03-22T03:41:36;6.07;;;3.15;;
39792;SDS011;26080;42.264;24.536;2024-03-22T03:44:01;4.50;;;1.75;;
39792;SDS011;26080;42.264;24.536;2024-03-22T03:46:27;4.15;;;2.13;;
39792;SDS011;26080;42.264;24.536;2024-03-22T03:48:52;4.78;;;1.85;;
39792;SDS011;26080;42.264;24.536;2024-03-22T03:51:18;4.65;;;3.17;;
39792;SDS011;26080;42.264;24.536;2024-03-22T03:53:43;3.58;;;1.77;;
39792;SDS011;26080;42.264;24.536;2024-03-22T03:56:08;5.32;;;2.53;;
39792;SDS011;26080;42.264;24.536;2024-03-22T03:58:34;3.28;;;1.67;;
39792;SDS011;26080;42.264;24.536;2024-03-22T04:01:04;5.07;;;2.55;;
39792;SDS011;26080;42.264;24.536;2024-03-22T04:03:30;5.53;;;2.58;;
39792;SDS011;26080;42.264;24.536;2024-03-22T04:05:56;7.05;;;2.50;;
39792;SDS011;26080;42.264;24.536;2024-03-22T04:08:22;3.83;;;2.40;;
39792;SDS011;26080;42.264;24.536;2024-03-22T04:10:55;30.85;;;4.25;;
39792;SDS011;26080;42.264;24.536;2024-03-22T04:13:24;14.05;;;4.80;;
39792;SDS011;26080;42.264;24.536;2024-03-22T04:15:50;9.40;;;4.70;;
39792;SDS011;26080;42.264;24.536;2024-03-22T04:18:16;8.07;;;4.45;;
39792;SDS011;26080;42.264;24.536;2024-03-22T04:20:41;7.63;;;3.85;;
39792;SDS011;26080;42.264;24.536;2024-03-22T04:23:08;5.35;;;3.70;;
39792;SDS011;26080;42.264;24.536;2024-03-22T04:25:33;9.23;;;4.32;;
39792;SDS011;26080;42.264;24.536;2024-03-22T04:27:59;4.88;;;2.40;;
39792;SDS011;26080;42.264;24.536;2024-03-22T04:30:24;16.60;;;3.50;;
39792;SDS011;26080;42.264;24.536;2024-03-22T04:32:50;4.57;;;2.30;;
39792;SDS011;26080;42.264;24.536;2024-03-22T04:35:15;3.33;;;2.40;;
39792;SDS011;26080;42.264;24.536;2024-03-22T04:37:41;3.35;;;2.03;;
39792;SDS011;26080;42.264;24.536;2024-03-22T04:40:06;3.75;;;2.25;;
39792;SDS011;26080;42.264;24.536;2024-03-22T04:42:33;2.75;;;1.95;;
39792;SDS011;26080;42.264;24.536;2024-03-22T04:44:58;5.40;;;3.28;;
39792;SDS011;26080;42.264;24.536;2024-03-22T04:47:24;4.35;;;2.40;;
39792;SDS011;26080;42.264;24.536;2024-03-22T04:49:49;7.03;;;3.25;;
39792;SDS011;26080;42.264;24.536;2024-03-22T04:52:15;6.38;;;3.85;;
39792;SDS011;26080;42.264;24.536;2024-03-22T04:54:40;4.15;;;2.97;;
39792;SDS011;26080;42.264;24.536;2024-03-22T04:57:05;6.68;;;3.38;;
39792;SDS011;26080;42.264;24.536;2024-03-22T04:59:31;8.68;;;3.85;;
39792;SDS011;26080;42.264;24.536;2024-03-22T05:01:56;5.85;;;3.55;;
39792;SDS011;26080;42.264;24.536;2024-03-22T05:04:22;5.57;;;2.20;;
39792;SDS011;26080;42.264;24.536;2024-03-22T05:06:47;5.20;;;2.50;;
39792;SDS011;26080;42.264;24.536;2024-03-22T05:09:12;10.73;;;5.55;;
39792;SDS011;26080;42.264;24.536;2024-03-22T05:11:38;14.13;;;3.90;;
39792;SDS011;26080;42.264;24.536;2024-03-22T05:14:03;4.57;;;2.75;;
39792;SDS011;26080;42.264;24.536;2024-03-22T05:16:29;4.30;;;2.90;;
39792;SDS011;26080;42.264;24.536;2024-03-22T05:18:54;4.20;;;2.50;;
39792;SDS011;26080;42.264;24.536;2024-03-22T05:21:20;6.50;;;2.28;;
39792;SDS011;26080;42.264;24.536;2024-03-22T05:23:45;4.63;;;2.03;;
39792;SDS011;26080;42.264;24.536;2024-03-22T05:26:11;4.22;;;2.25;;
39792;SDS011;26080;42.264;24.536;2024-03-22T05:28:36;7.88;;;4.75;;
39792;SDS011;26080;42.264;24.536;2024-03-22T05:31:01;9.82;;;3.95;;
39792;SDS011;26080;42.264;24.536;2024-03-22T05:33:28;5.85;;;3.47;;
39792;SDS011;26080;42.264;24.536;2024-03-22T05:35:53;4.85;;;2.22;;
39792;SDS011;26080;42.264;24.536;2024-03-22T05:38:19;6.47;;;2.28;;
39792;SDS011;26080;42.264;24.536;2024-03-22T05:40:44;5.18;;;2.08;;
39792;SDS011;26080;42.264;24.536;2024-03-22T05:43:12;7.10;;;3.63;;
39792;SDS011;26080;42.264;24.536;2024-03-22T05:45:38;4.07;;;2.40;;
39792;SDS011;26080;42.264;24.536;2024-03-22T05:48:03;10.82;;;2.45;;
39792;SDS011;26080;42.264;24.536;2024-03-22T05:50:29;4.55;;;2.28;;
39792;SDS011;26080;42.264;24.536;2024-03-22T05:52:55;4.57;;;2.60;;
39792;SDS011;26080;42.264;24.536;2024-03-22T05:55:20;4.20;;;1.77;;
39792;SDS011;26080;42.264;24.536;2024-03-22T05:57:45;3.50;;;2.17;;
39792;SDS011;26080;42.264;24.536;2024-03-22T06:00:11;4.07;;;2.45;;
39792;SDS011;26080;42.264;24.536;2024-03-22T06:02:38;4.35;;;2.65;;
39792;SDS011;26080;42.264;24.536;2024-03-22T06:05:04;7.97;;;2.55;;
39792;SDS011;26080;42.264;24.536;2024-03-22T06:07:29;5.05;;;1.98;;
39792;SDS011;26080;42.264;24.536;2024-03-22T06:10:00;5.82;;;2.92;;
39792;SDS011;26080;42.264;24.536;2024-03-22T06:12:25;3.65;;;1.88;;
39792;SDS011;26080;42.264;24.536;2024-03-22T06:14:51;3.35;;;2.15;;
39792;SDS011;26080;42.264;24.536;2024-03-22T06:17:16;5.57;;;2.75;;
39792;SDS011;26080;42.264;24.536;2024-03-22T06:19:42;2.80;;;2.03;;
39792;SDS011;26080;42.264;24.536;2024-03-22T06:22:07;11.20;;;3.08;;
39792;SDS011;26080;42.264;24.536;2024-03-22T06:24:32;19.30;;;6.35;;
39792;SDS011;26080;42.264;24.536;2024-03-22T06:26:58;21.85;;;2.90;;
39792;SDS011;26080;42.264;24.536;2024-03-22T06:29:23;6.53;;;3.55;;
39792;SDS011;26080;42.264;24.536;2024-03-22T06:31:49;15.15;;;3.80;;
39792;SDS011;26080;42.264;24.536;2024-03-22T06:34:15;4.85;;;2.63;;
39792;SDS011;26080;42.264;24.536;2024-03-22T06:36:40;6.07;;;3.55;;
39792;SDS011;26080;42.264;24.536;2024-03-22T06:39:06;4.20;;;2.75;;
39792;SDS011;26080;42.264;24.536;2024-03-22T06:41:33;6.85;;;2.92;;
39792;SDS011;26080;42.264;24.536;2024-03-22T06:43:59;3.17;;;1.80;;
39792;SDS011;26080;42.264;24.536;2024-03-22T06:46:24;6.00;;;3.03;;
39792;SDS011;26080;42.264;24.536;2024-03-22T06:48:50;3.50;;;1.98;;
39792;SDS011;26080;42.264;24.536;2024-03-22T06:51:16;8.40;;;2.55;;
39792;SDS011;26080;42.264;24.536;2024-03-22T06:53:41;10.43;;;3.53;;
39792;SDS011;26080;42.264;24.536;2024-03-22T06:56:07;5.03;;;2.97;;
39792;SDS011;26080;42.264;24.536;2024-03-22T06:58:35;5.03;;;2.55;;
39792;SDS011;26080;42.264;24.536;2024-03-22T07:01:01;5.20;;;3.03;;
39792;SDS011;26080;42.264;24.536;2024-03-22T07:03:26;6.07;;;2.47;;
39792;SDS011;26080;42.264;24.536;2024-03-22T07:05:52;4.28;;;2.38;;
39792;SDS011;26080;42.264;24.536;2024-03-22T07:08:17;3.00;;;1.85;;
39792;SDS011;26080;42.264;24.536;2024-03-22T07:10:43;5.25;;;2.60;;
39792;SDS011;26080;42.264;24.536;2024-03-22T07:13:10;5.25;;;2.40;;
39792;SDS011;26080;42.264;24.536;2024-03-22T07:15:35;4.88;;;2.03;;
39792;SDS011;26080;42.264;24.536;2024-03-22T07:18:01;5.18;;;1.88;;
39792;SDS011;26080;42.264;24.536;2024-03-22T07:20:27;4.70;;;2.30;;
39792;SDS011;26080;42.264;24.536;2024-03-22T07:22:53;7.03;;;2.50;;
39792;SDS011;26080;42.264;24.536;2024-03-22T07:25:18;4.03;;;2.30;;
39792;SDS011;26080;42.264;24.536;2024-03-22T07:27:44;4.93;;;1.73;;
39792;SDS011;26080;42.264;24.536;2024-03-22T07:30:11;3.92;;;1.88;;
39792;SDS011;26080;42.264;24.536;2024-03-22T07:32:36;4.53;;;2.55;;
39792;SDS011;26080;42.264;24.536;2024-03-22T07:35:02;3.45;;;1.95;;
39792;SDS011;26080;42.264;24.536;2024-03-22T07:37:28;4.63;;;2.33;;
39792;SDS011;26080;42.264;24.536;2024-03-22T07:39:53;4.25;;;1.95;;
39792;SDS011;26080;42.264;24.536;2024-03-22T07:42:19;4.35;;;1.80;;
39792;SDS011;26080;42.264;24.536;2024-03-22T07:44:44;8.10;;;2.65;;
39792;SDS011;26080;42.264;24.536;2024-03-22T07:47:10;3.90;;;2.00;;
39792;SDS011;26080;42.264;24.536;2024-03-22T07:49:35;2.97;;;1.27;;
39792;SDS011;26080;42.264;24.536;2024-03-22T07:52:01;3.97;;;1.77;;
39792;SDS011;26080;42.264;24.536;2024-03-22T07:54:30;8.35;;;2.53;;
39792;SDS011;26080;42.264;24.536;2024-03-22T07:56:55;3.25;;;1.85;;
39792;SDS011;26080;42.264;24.536;2024-03-22T07:59:21;3.40;;;1.45;;
39792;SDS011;26080;42.264;24.536;2024-03-22T08:01:46;2.50;;;1.52;;
39792;SDS011;26080;42.264;24.536;2024-03-22T08:04:12;3.78;;;1.17;;
39792;SDS011;26080;42.264;24.536;2024-03-22T08:06:37;6.35;;;1.95;;
39792;SDS011;26080;42.264;24.536;2024-03-22T08:09:02;3.10;;;1.98;;
39792;SDS011;26080;42.264;24.536;2024-03-22T08:11:28;2.78;;;1.98;;
39792;SDS011;26080;42.264;24.536;2024-03-22T08:13:53;5.43;;;2.00;;
39792;SDS011;26080;42.264;24.536;2024-03-22T08:16:26;5.65;;;2.55;;
39792;SDS011;26080;42.264;24.536;2024-03-22T08:18:52;10.48;;;2.65;;
39792;SDS011;26080;42.264;24.536;2024-03-22T08:21:17;3.35;;;2.05;;
39792;SDS011;26080;42.264;24.536;2024-03-22T08:23:43;2.75;;;1.70;;
39792;SDS011;26080;42.264;24.536;2024-03-22T08:26:08;6.20;;;1.83;;
39792;SDS011;26080;42.264;24.536;2024-03-22T08:28:33;4.32;;;2.20;;
39792;SDS011;26080;42.264;24.536;2024-03-22T08:31:03;4.22;;;2.40;;
39792;SDS011;26080;42.264;24.536;2024-03-22T08:33:28;3.83;;;1.50;;
39792;SDS011;26080;42.264;24.536;2024-03-22T08:35:54;10.23;;;2.47;;
39792;SDS011;26080;42.264;24.536;2024-03-22T08:38:19;3.92;;;1.67;;
39792;SDS011;26080;42.264;24.536;2024-03-22T08:40:45;5.45;;;2.50;;
39792;SDS011;26080;42.264;24.536;2024-03-22T08:43:10;4.43;;;2.10;;
39792;SDS011;26080;42.264;24.536;2024-03-22T08:45:35;7.28;;;3.00;;
39792;SDS011;26080;42.264;24.536;2024-03-22T08:48:01;4.53;;;2.35;;
39792;SDS011;26080;42.264;24.536;2024-03-22T08:50:27;3.38;;;1.45;;
39792;SDS011;26080;42.264;24.536;2024-03-22T08:52:52;4.00;;;1.45;;
39792;SDS011;26080;42.264;24.536;2024-03-22T08:55:18;4.05;;;2.20;;
39792;SDS011;26080;42.264;24.536;2024-03-22T08:57:43;3.88;;;1.92;;
39792;SDS011;26080;42.264;24.536;2024-03-22T09:00:09;6.65;;;1.55;;
39792;SDS011;26080;42.264;24.536;2024-03-22T09:02:35;3.28;;;1.98;;
39792;SDS011;26080;42.264;24.536;2024-03-22T09:05:03;3.17;;;1.83;;
39792;SDS011;26080;42.264;24.536;2024-03-22T09:07:30;2.05;;;1.15;;
39792;SDS011;26080;42.264;24.536;2024-03-22T09:09:55;3.45;;;0.90;;
39792;SDS011;26080;42.264;24.536;2024-03-22T09:12:21;3.33;;;1.92;;
39792;SDS011;26080;42.264;24.536;2024-03-22T09:14:46;2.83;;;1.45;;
39792;SDS011;26080;42.264;24.536;2024-03-22T09:17:11;2.60;;;1.08;;
39792;SDS011;26080;42.264;24.536;2024-03-22T09:19:37;9.20;;;2.05;;
39792;SDS011;26080;42.264;24.536;2024-03-22T09:22:02;2.60;;;1.02;;
39792;SDS011;26080;42.264;24.536;2024-03-22T09:24:28;2.45;;;1.50;;
39792;SDS011;26080;42.264;24.536;2024-03-22T09:26:53;2.22;;;0.85;;
39792;SDS011;26080;42.264;24.536;2024-03-22T09:29:19;2.25;;;1.20;;
39792;SDS011;26080;42.264;24.536;2024-03-22T09:31:47;6.65;;;2.17;;
39792;SDS011;26080;42.264;24.536;2024-03-22T09:34:16;2.10;;;0.93;;
39792;SDS011;26080;42.264;24.536;2024-03-22T09:36:42;6.70;;;1.67;;
39792;SDS011;26080;42.264;24.536;2024-03-22T09:39:07;2.65;;;1.02;;
39792;SDS011;26080;42.264;24.536;2024-03-22T09:41:33;5.00;;;1.10;;
39792;SDS011;26080;42.264;24.536;2024-03-22T09:44:07;3.65;;;1.20;;
39792;SDS011;26080;42.264;24.536;2024-03-22T09:46:38;1.70;;;0.90;;
39792;SDS011;26080;42.264;24.536;2024-03-22T09:49:05;3.55;;;1.33;;
39792;SDS011;26080;42.264;24.536;2024-03-22T09:51:32;2.28;;;0.75;;
39792;SDS011;26080;42.264;24.536;2024-03-22T09:53:59;10.25;;;3.50;;
39792;SDS011;26080;42.264;24.536;2024-03-22T09:56:26;3.58;;;1.50;;
39792;SDS011;26080;42.264;24.536;2024-03-22T09:58:55;3.95;;;1.83;;
39792;SDS011;26080;42.264;24.536;2024-03-22T10:01:20;2.72;;;1.15;;
39792;SDS011;26080;42.264;24.536;2024-03-22T10:03:46;5.47;;;1.25;;
39792;SDS011;26080;42.264;24.536;2024-03-22T10:06:13;3.10;;;1.38;;
39792;SDS011;26080;42.264;24.536;2024-03-22T10:08:39;2.97;;;1.60;;
39792;SDS011;26080;42.264;24.536;2024-03-22T10:11:04;2.45;;;1.27;;
39792;SDS011;26080;42.264;24.536;2024-03-22T10:13:30;3.08;;;1.42;;
39792;SDS011;26080;42.264;24.536;2024-03-22T10:15:56;3.15;;;1.08;;
39792;SDS011;26080;42.264;24.536;2024-03-22T10:18:22;2.47;;;1.20;;
39792;SDS011;26080;42.264;24.536;2024-03-22T10:20:58;2.88;;;1.52;;
39792;SDS011;26080;42.264;24.536;2024-03-22T10:23:25;4.18;;;1.73;;
39792;SDS011;26080;42.264;24.536;2024-03-22T10:25:51;5.82;;;1.52;;
39792;SDS011;26080;42.264;24.536;2024-03-22T10:28:16;2.33;;;1.27;;
39792;SDS011;26080;42.264;24.536;2024-03-22T10:30:41;4.95;;;1.85;;
39792;SDS011;26080;42.264;24.536;2024-03-22T10:33:09;1.80;;;0.90;;
39792;SDS011;26080;42.264;24.536;2024-03-22T10:35:36;2.75;;;1.40;;
39792;SDS011;26080;42.264;24.536;2024-03-22T10:38:01;2.25;;;1.05;;
39792;SDS011;26080;42.264;24.536;2024-03-22T10:40:27;9.85;;;2.22;;
39792;SDS011;26080;42.264;24.536;2024-03-22T10:43:00;3.53;;;1.35;;
39792;SDS011;26080;42.264;24.536;2024-03-22T10:45:27;2.42;;;1.33;;
39792;SDS011;26080;42.264;24.536;2024-03-22T10:47:54;2.10;;;1.10;;
39792;SDS011;26080;42.264;24.536;2024-03-22T10:50:20;1.45;;;0.77;;
39792;SDS011;26080;42.264;24.536;2024-03-22T10:52:50;2.45;;;1.23;;
39792;SDS011;26080;42.264;24.536;2024-03-22T10:55:32;1.85;;;1.02;;
39792;SDS011;26080;42.264;24.536;2024-03-22T10:57:59;1.73;;;0.88;;
39792;SDS011;26080;42.264;24.536;2024-03-22T11:00:31;1.95;;;1.05;;
39792;SDS011;26080;42.264;24.536;2024-03-22T11:02:58;0.93;;;0.70;;
39792;SDS011;26080;42.264;24.536;2024-03-22T11:05:25;0.82;;;0.60;;
39792;SDS011;26080;42.264;24.536;2024-03-22T11:08:03;2.47;;;1.00;;
39792;SDS011;26080;42.264;24.536;2024-03-22T11:10:30;2.47;;;1.10;;
39792;SDS011;26080;42.264;24.536;2024-03-22T11:13:01;2.47;;;1.17;;
39792;SDS011;26080;42.264;24.536;2024-03-22T11:15:30;2.63;;;0.77;;
39792;SDS011;26080;42.264;24.536;2024-03-22T11:17:57;2.20;;;1.08;;
39792;SDS011;26080;42.264;24.536;2024-03-22T11:20:23;2.10;;;0.90;;
39792;SDS011;26080;42.264;24.536;2024-03-22T11:22:49;5.22;;;1.10;;
39792;SDS011;26080;42.264;24.536;2024-03-22T11:25:16;2.40;;;1.25;;
39792;SDS011;26080;42.264;24.536;2024-03-22T11:27:41;3.72;;;1.80;;
39792;SDS011;26080;42.264;24.536;2024-03-22T11:30:06;3.30;;;1.00;;
39792;SDS011;26080;42.264;24.536;2024-03-22T11:32:33;1.38;;;0.65;;
39792;SDS011;26080;42.264;24.536;2024-03-22T11:35:07;2.10;;;1.10;;
39792;SDS011;26080;42.264;24.536;2024-03-22T11:37:34;0.90;;;0.60;;
39792;SDS011;26080;42.264;24.536;2024-03-22T11:39:59;0.77;;;0.60;;
39792;SDS011;26080;42.264;24.536;2024-03-22T11:42:27;1.25;;;0.80;;
39792;SDS011;26080;42.264;24.536;2024-03-22T11:44:53;1.50;;;0.73;;
39792;SDS011;26080;42.264;24.536;2024-03-22T11:47:19;2.17;;;1.00;;
39792;SDS011;26080;42.264;24.536;2024-03-22T11:49:44;2.00;;;1.23;;
39792;SDS011;26080;42.264;24.536;2024-03-22T11:52:10;2.05;;;0.95;;
39792;SDS011;26080;42.264;24.536;2024-03-22T11:54:35;1.73;;;1.00;;
39792;SDS011;26080;42.264;24.536;2024-03-22T11:57:02;2.40;;;1.02;;
39792;SDS011;26080;42.264;24.536;2024-03-22T11:59:29;1.20;;;0.90;;
39792;SDS011;26080;42.264;24.536;2024-03-22T12:01:54;3.00;;;0.65;;
39792;SDS011;26080;42.264;24.536;2024-03-22T12:04:20;1.23;;;0.55;;
39792;SDS011;26080;42.264;24.536;2024-03-22T12:06:46;1.23;;;0.73;;
39792;SDS011;26080;42.264;24.536;2024-03-22T12:09:11;2.08;;;1.08;;
39792;SDS011;26080;42.264;24.536;2024-03-22T12:11:39;1.48;;;0.70;;
39792;SDS011;26080;42.264;24.536;2024-03-22T12:14:04;1.70;;;0.88;;
39792;SDS011;26080;42.264;24.536;2024-03-22T12:16:30;2.65;;;1.00;;
39792;SDS011;26080;42.264;24.536;2024-03-22T12:18:55;3.15;;;0.85;;
39792;SDS011;26080;42.264;24.536;2024-03-22T12:21:21;5.55;;;1.27;;
39792;SDS011;26080;42.264;24.536;2024-03-22T12:23:46;3.20;;;0.82;;
39792;SDS011;26080;42.264;24.536;2024-03-22T12:26:12;2.47;;;0.77;;
39792;SDS011;26080;42.264;24.536;2024-03-22T12:28:38;1.67;;;0.65;;
39792;SDS011;26080;42.264;24.536;2024-03-22T12:31:04;2.05;;;0.80;;
39792;SDS011;26080;42.264;24.536;2024-03-22T12:33:29;0.85;;;0.50;;
39792;SDS011;26080;42.264;24.536;2024-03-22T12:35:55;1.25;;;0.88;;
39792;SDS011;26080;42.264;24.536;2024-03-22T12:38:20;2.17;;;1.13;;
39792;SDS011;26080;42.264;24.536;2024-03-22T12:40:46;2.33;;;0.90;;
39792;SDS011;26080;42.264;24.536;2024-03-22T12:43:11;2.72;;;1.10;;
39792;SDS011;26080;42.264;24.536;2024-03-22T12:45:37;1.15;;;0.95;;
39792;SDS011;26080;42.264;24.536;2024-03-22T12:48:03;0.77;;;0.50;;
39792;SDS011;26080;42.264;24.536;2024-03-22T12:50:29;1.40;;;0.85;;
39792;SDS011;26080;42.264;24.536;2024-03-22T12:52:55;1.55;;;0.70;;
39792;SDS011;26080;42.264;24.536;2024-03-22T12:55:21;1.08;;;0.85;;
39792;SDS011;26080;42.264;24.536;2024-03-22T12:57:46;0.88;;;0.50;;
39792;SDS011;26080;42.264;24.536;2024-03-22T13:00:11;1.25;;;0.57;;
39792;SDS011;26080;42.264;24.536;2024-03-22T13:02:40;1.90;;;0.70;;
39792;SDS011;26080;42.264;24.536;2024-03-22T13:05:06;1.23;;;0.40;;
39792;SDS011;26080;42.264;24.536;2024-03-22T13:07:33;2.50;;;0.75;;
39792;SDS011;26080;42.264;24.536;2024-03-22T13:09:58;1.50;;;0.75;;
39792;SDS011;26080;42.264;24.536;2024-03-22T13:12:25;1.73;;;0.55;;
39792;SDS011;26080;42.264;24.536;2024-03-22T13:14:56;2.35;;;0.90;;
39792;SDS011;26080;42.264;24.536;2024-03-22T13:17:21;1.58;;;0.60;;
39792;SDS011;26080;42.264;24.536;2024-03-22T13:19:47;5.47;;;1.02;;
39792;SDS011;26080;42.264;24.536;2024-03-22T13:22:12;1.25;;;0.85;;
39792;SDS011;26080;42.264;24.536;2024-03-22T13:24:38;0.90;;;0.70;;
39792;SDS011;26080;42.264;24.536;2024-03-22T13:27:03;0.95;;;0.38;;
39792;SDS011;26080;42.264;24.536;2024-03-22T13:29:29;2.08;;;0.70;;
39792;SDS011;26080;42.264;24.536;2024-03-22T13:31:54;0.70;;;0.70;;
39792;SDS011;26080;42.264;24.536;2024-03-22T13:34:20;1.35;;;0.68;;
39792;SDS011;26080;42.264;24.536;2024-03-22T13:36:45;1.30;;;0.63;;
39792;SDS011;26080;42.264;24.536;2024-03-22T13:39:11;6.53;;;1.17;;
39792;SDS011;26080;42.264;24.536;2024-03-22T13:41:40;2.13;;;1.27;;
39792;SDS011;26080;42.264;24.536;2024-03-22T13:44:06;1.20;;;0.50;;
39792;SDS011;26080;42.264;24.536;2024-03-22T13:46:33;2.88;;;0.60;;
39792;SDS011;26080;42.264;24.536;2024-03-22T13:49:01;3.28;;;0.68;;
39792;SDS011;26080;42.264;24.536;2024-03-22T13:51:27;0.98;;;0.40;;
39792;SDS011;26080;42.264;24.536;2024-03-22T13:53:54;1.73;;;1.13;;
39792;SDS011;26080;42.264;24.536;2024-03-22T13:56:20;3.45;;;0.90;;
39792;SDS011;26080;42.264;24.536;2024-03-22T13:58:46;2.38;;;0.80;;
39792;SDS011;26080;42.264;24.536;2024-03-22T14:01:11;0.85;;;0.52;;
39792;SDS011;26080;42.264;24.536;2024-03-22T14:03:37;6.47;;;1.48;;
39792;SDS011;26080;42.264;24.536;2024-03-22T14:06:02;8.07;;;0.82;;
39792;SDS011;26080;42.264;24.536;2024-03-22T14:08:28;1.80;;;0.88;;
39792;SDS011;26080;42.264;24.536;2024-03-22T14:10:54;3.60;;;0.77;;
39792;SDS011;26080;42.264;24.536;2024-03-22T14:13:19;1.10;;;0.47;;
39792;SDS011;26080;42.264;24.536;2024-03-22T14:15:45;2.38;;;0.57;;
39792;SDS011;26080;42.264;24.536;2024-03-22T14:18:10;1.48;;;0.65;;
39792;SDS011;26080;42.264;24.536;2024-03-22T14:20:35;2.97;;;1.27;;
39792;SDS011;26080;42.264;24.536;2024-03-22T14:23:01;4.47;;;1.33;;
39792;SDS011;26080;42.264;24.536;2024-03-22T14:25:26;3.53;;;1.33;;